Main page
METAR-TAF:

METAR-TAF

Airports :

Lomé, Togo

Lomé–Tokoin International Airport

latitude: 06-10N, longitude: 001-15E, elevation: 20 m

Current weather observation

The report was made 37 minutes ago, at 02:00 UTC
Wind 1 kt from the West/Southwest
Temperature 26°C
Humidity 89%
Pressure 1010 hPa
Visibility 10 km or more
Few clouds at a height of 1100 ft

METAR: DXXX 220200Z 24001KT 9999 FEW011 26/24 Q1010 NOSIG

Time: 02:37 (02:37 UTC)

Forecast

The report was made 3 hours and 37 minutes ago, at 23:00 UTC
Forecast valid from 22 at 00 UTC to 23 at 06 UTC
Wind 4 kt from the West
Visibility 10 km or more
Few clouds at a height of 1200 ft
Temporary
from 22 at 00 UTC to 22 at 04 UTC
Broken clouds at a height of 1000 ft
Few clouds at a height of 2000 ft, Cumulonimbus.
Probability 30%
between TS and UTC
Becoming
from 22 at 08 UTC to 22 at 10 UTC
Wind 12 kt from the South/Southwest

TAF: DXXX 212300Z 2200/2306 26004KT 9999 FEW012 TEMPO 2200/2204 BKN010 FEW020CB PROB30 TS BECMG 2208/2210 20012KT

Weather observations and forecasts of more than 4000 airports (METAR and TAF reports).

The available stations are represented by yellow and red dots on the map.

Hover mouse over dot to see the name of the station.

Then click to see weather observations and forecasts.

To change the map : click on the green buttons with a black cross to zoom in, on the green button with a dash to zoom out, or on the green arrows for adjacent maps.


METAR-TAF: